sensor_id;sensor_type;location;lat;lon;timestamp;P1;durP1;ratioP1;P2;durP2;ratioP2
37097;SDS011;63608;49.572;12.348;2024-03-23T00:53:53;1.43;;;1.40;;
37097;SDS011;63608;49.572;12.348;2024-03-23T00:55:54;1.60;;;1.50;;
37097;SDS011;63608;49.572;12.348;2024-03-23T00:57:56;1.50;;;1.40;;
37097;SDS011;63608;49.572;12.348;2024-03-23T00:59:57;1.67;;;1.57;;
37097;SDS011;63608;49.572;12.348;2024-03-23T01:01:59;1.67;;;1.60;;
37097;SDS011;63608;49.572;12.348;2024-03-23T01:04:00;1.63;;;1.53;;
37097;SDS011;63608;49.572;12.348;2024-03-23T01:06:03;1.30;;;1.30;;
37097;SDS011;63608;49.572;12.348;2024-03-23T01:08:04;1.33;;;1.23;;
37097;SDS011;63608;49.572;12.348;2024-03-23T01:10:08;1.10;;;1.10;;
37097;SDS011;63608;49.572;12.348;2024-03-23T01:12:09;2.00;;;1.20;;
37097;SDS011;63608;49.572;12.348;2024-03-23T01:14:11;1.70;;;1.60;;
37097;SDS011;63608;49.572;12.348;2024-03-23T01:16:12;1.50;;;1.40;;
37097;SDS011;63608;49.572;12.348;2024-03-23T01:18:14;1.20;;;1.20;;
37097;SDS011;63608;49.572;12.348;2024-03-23T01:20:15;2.67;;;1.63;;
37097;SDS011;63608;49.572;12.348;2024-03-23T01:22:17;1.50;;;1.50;;
37097;SDS011;63608;49.572;12.348;2024-03-23T01:24:18;1.60;;;1.43;;
37097;SDS011;63608;49.572;12.348;2024-03-23T01:26:21;1.83;;;1.20;;
37097;SDS011;63608;49.572;12.348;2024-03-23T01:28:22;1.20;;;1.20;;
37097;SDS011;63608;49.572;12.348;2024-03-23T01:30:32;2.60;;;1.40;;
37097;SDS011;63608;49.572;12.348;2024-03-23T01:32:33;1.97;;;1.30;;
37097;SDS011;63608;49.572;12.348;2024-03-23T01:34:35;1.20;;;1.20;;
37097;SDS011;63608;49.572;12.348;2024-03-23T01:36:36;1.20;;;1.20;;
37097;SDS011;63608;49.572;12.348;2024-03-23T01:38:37;1.40;;;1.40;;
37097;SDS011;63608;49.572;12.348;2024-03-23T01:40:38;1.10;;;1.10;;
37097;SDS011;63608;49.572;12.348;2024-03-23T01:42:42;1.30;;;1.27;;
37097;SDS011;63608;49.572;12.348;2024-03-23T01:44:43;1.33;;;1.33;;
37097;SDS011;63608;49.572;12.348;2024-03-23T01:46:45;1.50;;;1.40;;
37097;SDS011;63608;49.572;12.348;2024-03-23T01:48:46;1.67;;;1.47;;
37097;SDS011;63608;49.572;12.348;2024-03-23T01:50:48;1.60;;;1.50;;
37097;SDS011;63608;49.572;12.348;2024-03-23T01:52:49;1.30;;;1.30;;
37097;SDS011;63608;49.572;12.348;2024-03-23T01:54:52;1.30;;;1.30;;
37097;SDS011;63608;49.572;12.348;2024-03-23T01:56:53;1.07;;;1.07;;
37097;SDS011;63608;49.572;12.348;2024-03-23T01:58:57;1.70;;;1.60;;
37097;SDS011;63608;49.572;12.348;2024-03-23T02:00:58;1.30;;;1.30;;
37097;SDS011;63608;49.572;12.348;2024-03-23T02:03:00;1.17;;;1.17;;
37097;SDS011;63608;49.572;12.348;2024-03-23T02:05:01;1.20;;;1.20;;
37097;SDS011;63608;49.572;12.348;2024-03-23T02:07:03;1.20;;;1.20;;
37097;SDS011;63608;49.572;12.348;2024-03-23T02:09:05;1.33;;;1.33;;
37097;SDS011;63608;49.572;12.348;2024-03-23T02:11:07;1.20;;;1.20;;
37097;SDS011;63608;49.572;12.348;2024-03-23T02:13:09;4.40;;;1.60;;
37097;SDS011;63608;49.572;12.348;2024-03-23T02:15:12;1.20;;;1.20;;
37097;SDS011;63608;49.572;12.348;2024-03-23T02:17:13;1.30;;;1.30;;
37097;SDS011;63608;49.572;12.348;2024-03-23T02:19:15;2.07;;;1.10;;
37097;SDS011;63608;49.572;12.348;2024-03-23T02:21:16;1.30;;;1.30;;
37097;SDS011;63608;49.572;12.348;2024-03-23T02:23:19;2.63;;;1.30;;
37097;SDS011;63608;49.572;12.348;2024-03-23T02:25:20;6.90;;;1.40;;
37097;SDS011;63608;49.572;12.348;2024-03-23T02:27:22;1.30;;;1.20;;
37097;SDS011;63608;49.572;12.348;2024-03-23T02:29:25;1.50;;;1.40;;
37097;SDS011;63608;49.572;12.348;2024-03-23T02:31:26;1.53;;;1.53;;
37097;SDS011;63608;49.572;12.348;2024-03-23T02:33:27;1.13;;;1.13;;
37097;SDS011;63608;49.572;12.348;2024-03-23T02:35:28;1.20;;;1.20;;
37097;SDS011;63608;49.572;12.348;2024-03-23T02:37:30;2.63;;;1.30;;
37097;SDS011;63608;49.572;12.348;2024-03-23T02:39:33;1.07;;;1.07;;
37097;SDS011;63608;49.572;12.348;2024-03-23T02:41:36;1.17;;;1.17;;
37097;SDS011;63608;49.572;12.348;2024-03-23T02:43:37;1.73;;;1.27;;
37097;SDS011;63608;49.572;12.348;2024-03-23T02:45:39;1.60;;;1.50;;
37097;SDS011;63608;49.572;12.348;2024-03-23T02:47:40;1.40;;;1.30;;
37097;SDS011;63608;49.572;12.348;2024-03-23T02:49:42;1.23;;;1.10;;
37097;SDS011;63608;49.572;12.348;2024-03-23T02:51:43;1.20;;;1.20;;
37097;SDS011;63608;49.572;12.348;2024-03-23T02:53:48;0.90;;;0.90;;
37097;SDS011;63608;49.572;12.348;2024-03-23T02:55:51;1.30;;;1.20;;
37097;SDS011;63608;49.572;12.348;2024-03-23T02:57:53;1.20;;;1.20;;
37097;SDS011;63608;49.572;12.348;2024-03-23T02:59:53;1.40;;;1.20;;
37097;SDS011;63608;49.572;12.348;2024-03-23T03:01:56;1.23;;;1.20;;
37097;SDS011;63608;49.572;12.348;2024-03-23T03:03:56;1.30;;;1.30;;
37097;SDS011;63608;49.572;12.348;2024-03-23T03:05:57;1.20;;;1.20;;
37097;SDS011;63608;49.572;12.348;2024-03-23T03:07:59;1.20;;;1.20;;
37097;SDS011;63608;49.572;12.348;2024-03-23T03:10:00;3.43;;;1.10;;
37097;SDS011;63608;49.572;12.348;2024-03-23T03:12:04;1.43;;;1.43;;
37097;SDS011;63608;49.572;12.348;2024-03-23T03:14:05;1.37;;;1.27;;
37097;SDS011;63608;49.572;12.348;2024-03-23T03:16:08;1.53;;;1.43;;
37097;SDS011;63608;49.572;12.348;2024-03-23T03:18:09;2.27;;;1.10;;
37097;SDS011;63608;49.572;12.348;2024-03-23T03:20:11;1.17;;;1.10;;
37097;SDS011;63608;49.572;12.348;2024-03-23T03:22:13;1.10;;;1.10;;
37097;SDS011;63608;49.572;12.348;2024-03-23T03:24:16;3.23;;;1.40;;
37097;SDS011;63608;49.572;12.348;2024-03-23T03:26:17;1.03;;;1.03;;
37097;SDS011;63608;49.572;12.348;2024-03-23T03:28:20;2.97;;;1.40;;
37097;SDS011;63608;49.572;12.348;2024-03-23T03:30:21;1.30;;;1.20;;
37097;SDS011;63608;49.572;12.348;2024-03-23T03:32:23;1.27;;;1.27;;
37097;SDS011;63608;49.572;12.348;2024-03-23T03:34:24;1.33;;;1.30;;
37097;SDS011;63608;49.572;12.348;2024-03-23T03:36:26;1.43;;;1.40;;
37097;SDS011;63608;49.572;12.348;2024-03-23T03:38:27;2.00;;;1.50;;
37097;SDS011;63608;49.572;12.348;2024-03-23T03:40:29;1.20;;;1.20;;
37097;SDS011;63608;49.572;12.348;2024-03-23T03:42:30;1.30;;;1.30;;
37097;SDS011;63608;49.572;12.348;2024-03-23T03:44:34;0.97;;;0.97;;
37097;SDS011;63608;49.572;12.348;2024-03-23T03:46:36;1.20;;;1.20;;
37097;SDS011;63608;49.572;12.348;2024-03-23T03:48:38;1.20;;;1.20;;
37097;SDS011;63608;49.572;12.348;2024-03-23T03:50:39;1.80;;;1.70;;
37097;SDS011;63608;49.572;12.348;2024-03-23T03:52:41;1.30;;;1.30;;
37097;SDS011;63608;49.572;12.348;2024-03-23T03:54:42;1.57;;;1.47;;
37097;SDS011;63608;49.572;12.348;2024-03-23T03:56:44;1.30;;;1.20;;
37097;SDS011;63608;49.572;12.348;2024-03-23T03:58:45;1.50;;;1.47;;
37097;SDS011;63608;49.572;12.348;2024-03-23T04:00:48;1.83;;;1.33;;
37097;SDS011;63608;49.572;12.348;2024-03-23T04:02:49;1.37;;;1.30;;
37097;SDS011;63608;49.572;12.348;2024-03-23T04:04:51;1.23;;;1.23;;
37097;SDS011;63608;49.572;12.348;2024-03-23T04:06:57;1.73;;;1.50;;
37097;SDS011;63608;49.572;12.348;2024-03-23T04:09:00;2.17;;;1.73;;
37097;SDS011;63608;49.572;12.348;2024-03-23T04:11:01;1.30;;;1.30;;
37097;SDS011;63608;49.572;12.348;2024-03-23T04:13:03;1.50;;;1.50;;
37097;SDS011;63608;49.572;12.348;2024-03-23T04:15:05;1.60;;;1.43;;
37097;SDS011;63608;49.572;12.348;2024-03-23T04:17:08;1.30;;;1.30;;
37097;SDS011;63608;49.572;12.348;2024-03-23T04:19:09;1.50;;;1.40;;
37097;SDS011;63608;49.572;12.348;2024-03-23T04:21:11;1.43;;;1.43;;
37097;SDS011;63608;49.572;12.348;2024-03-23T04:23:12;2.00;;;1.80;;
37097;SDS011;63608;49.572;12.348;2024-03-23T04:25:14;1.80;;;1.70;;
37097;SDS011;63608;49.572;12.348;2024-03-23T04:27:15;3.93;;;1.50;;
37097;SDS011;63608;49.572;12.348;2024-03-23T04:29:17;1.53;;;1.47;;
37097;SDS011;63608;49.572;12.348;2024-03-23T04:31:18;1.67;;;1.57;;
37097;SDS011;63608;49.572;12.348;2024-03-23T04:33:21;1.67;;;1.60;;
37097;SDS011;63608;49.572;12.348;2024-03-23T04:35:22;1.40;;;1.40;;
37097;SDS011;63608;49.572;12.348;2024-03-23T04:37:25;1.60;;;1.50;;
37097;SDS011;63608;49.572;12.348;2024-03-23T04:39:27;1.37;;;1.27;;
37097;SDS011;63608;49.572;12.348;2024-03-23T04:41:29;1.53;;;1.53;;
37097;SDS011;63608;49.572;12.348;2024-03-23T04:43:33;1.20;;;1.20;;
37097;SDS011;63608;49.572;12.348;2024-03-23T04:45:35;1.93;;;1.47;;
37097;SDS011;63608;49.572;12.348;2024-03-23T04:47:37;1.47;;;1.47;;
37097;SDS011;63608;49.572;12.348;2024-03-23T04:49:41;1.60;;;1.50;;
37097;SDS011;63608;49.572;12.348;2024-03-23T04:51:43;1.60;;;1.50;;
37097;SDS011;63608;49.572;12.348;2024-03-23T04:53:46;1.50;;;1.40;;
37097;SDS011;63608;49.572;12.348;2024-03-23T04:55:48;1.40;;;1.30;;
37097;SDS011;63608;49.572;12.348;2024-03-23T04:57:50;1.30;;;1.30;;
37097;SDS011;63608;49.572;12.348;2024-03-23T04:59:51;1.70;;;1.60;;
37097;SDS011;63608;49.572;12.348;2024-03-23T05:01:52;1.50;;;1.40;;
37097;SDS011;63608;49.572;12.348;2024-03-23T05:03:53;2.30;;;1.20;;
37097;SDS011;63608;49.572;12.348;2024-03-23T05:05:57;1.57;;;1.47;;
37097;SDS011;63608;49.572;12.348;2024-03-23T05:07:58;1.30;;;1.20;;
37097;SDS011;63608;49.572;12.348;2024-03-23T05:10:01;1.50;;;1.40;;
37097;SDS011;63608;49.572;12.348;2024-03-23T05:12:02;1.37;;;1.37;;
37097;SDS011;63608;49.572;12.348;2024-03-23T05:14:04;1.40;;;1.40;;
37097;SDS011;63608;49.572;12.348;2024-03-23T05:16:05;1.30;;;1.30;;
37097;SDS011;63608;49.572;12.348;2024-03-23T05:18:07;1.00;;;1.00;;
37097;SDS011;63608;49.572;12.348;2024-03-23T05:20:08;1.30;;;1.20;;
37097;SDS011;63608;49.572;12.348;2024-03-23T05:22:14;1.20;;;1.20;;
37097;SDS011;63608;49.572;12.348;2024-03-23T05:24:15;1.27;;;1.27;;
37097;SDS011;63608;49.572;12.348;2024-03-23T05:26:17;1.10;;;1.10;;
37097;SDS011;63608;49.572;12.348;2024-03-23T05:28:17;2.63;;;1.47;;
37097;SDS011;63608;49.572;12.348;2024-03-23T05:30:19;1.23;;;1.20;;
37097;SDS011;63608;49.572;12.348;2024-03-23T05:32:20;1.23;;;1.23;;
37097;SDS011;63608;49.572;12.348;2024-03-23T05:34:22;1.10;;;1.10;;
37097;SDS011;63608;49.572;12.348;2024-03-23T05:36:23;1.30;;;1.30;;
37097;SDS011;63608;49.572;12.348;2024-03-23T05:38:27;1.10;;;1.10;;
37097;SDS011;63608;49.572;12.348;2024-03-23T05:40:28;1.40;;;1.30;;
37097;SDS011;63608;49.572;12.348;2024-03-23T05:42:31;1.60;;;1.50;;
37097;SDS011;63608;49.572;12.348;2024-03-23T05:44:31;1.13;;;1.13;;
37097;SDS011;63608;49.572;12.348;2024-03-23T05:46:34;1.00;;;1.00;;
37097;SDS011;63608;49.572;12.348;2024-03-23T05:48:34;1.87;;;1.40;;
37097;SDS011;63608;49.572;12.348;2024-03-23T05:50:37;1.33;;;1.33;;
37097;SDS011;63608;49.572;12.348;2024-03-23T05:52:39;1.00;;;1.00;;
37097;SDS011;63608;49.572;12.348;2024-03-23T05:54:44;1.50;;;1.50;;
37097;SDS011;63608;49.572;12.348;2024-03-23T05:56:45;1.10;;;1.10;;
37097;SDS011;63608;49.572;12.348;2024-03-23T05:58:47;2.20;;;1.83;;
37097;SDS011;63608;49.572;12.348;2024-03-23T06:00:48;1.03;;;1.00;;
37097;SDS011;63608;49.572;12.348;2024-03-23T06:02:50;1.47;;;1.20;;
37097;SDS011;63608;49.572;12.348;2024-03-23T06:04:51;1.10;;;1.10;;
37097;SDS011;63608;49.572;12.348;2024-03-23T06:06:53;1.20;;;1.20;;
37097;SDS011;63608;49.572;12.348;2024-03-23T06:08:54;0.80;;;0.80;;
37097;SDS011;63608;49.572;12.348;2024-03-23T06:10:57;1.20;;;1.00;;
37097;SDS011;63608;49.572;12.348;2024-03-23T06:12:58;1.30;;;1.20;;
37097;SDS011;63608;49.572;12.348;2024-03-23T06:15:00;1.07;;;1.07;;
37097;SDS011;63608;49.572;12.348;2024-03-23T06:17:02;1.00;;;1.00;;
37097;SDS011;63608;49.572;12.348;2024-03-23T06:19:04;1.17;;;1.17;;
37097;SDS011;63608;49.572;12.348;2024-03-23T06:21:12;1.73;;;1.10;;
37097;SDS011;63608;49.572;12.348;2024-03-23T06:23:14;0.83;;;0.83;;
37097;SDS011;63608;49.572;12.348;2024-03-23T06:25:17;0.93;;;0.93;;
37097;SDS011;63608;49.572;12.348;2024-03-23T06:27:19;0.80;;;0.80;;
37097;SDS011;63608;49.572;12.348;2024-03-23T06:29:21;1.10;;;1.10;;
37097;SDS011;63608;49.572;12.348;2024-03-23T06:31:22;2.70;;;2.40;;
37097;SDS011;63608;49.572;12.348;2024-03-23T06:33:24;1.17;;;1.03;;
37097;SDS011;63608;49.572;12.348;2024-03-23T06:35:25;0.97;;;0.97;;
37097;SDS011;63608;49.572;12.348;2024-03-23T06:37:27;1.00;;;1.00;;
37097;SDS011;63608;49.572;12.348;2024-03-23T06:39:28;1.37;;;1.27;;
37097;SDS011;63608;49.572;12.348;2024-03-23T06:41:31;1.00;;;1.00;;
37097;SDS011;63608;49.572;12.348;2024-03-23T06:43:33;0.83;;;0.83;;
37097;SDS011;63608;49.572;12.348;2024-03-23T06:45:35;2.17;;;1.33;;
37097;SDS011;63608;49.572;12.348;2024-03-23T06:47:37;1.40;;;1.40;;
37097;SDS011;63608;49.572;12.348;2024-03-23T06:49:39;1.10;;;1.10;;
37097;SDS011;63608;49.572;12.348;2024-03-23T06:51:40;0.90;;;0.90;;
37097;SDS011;63608;49.572;12.348;2024-03-23T06:53:42;1.00;;;1.00;;
37097;SDS011;63608;49.572;12.348;2024-03-23T06:55:43;0.87;;;0.87;;
37097;SDS011;63608;49.572;12.348;2024-03-23T06:57:52;1.10;;;1.10;;
37097;SDS011;63608;49.572;12.348;2024-03-23T06:59:54;0.80;;;0.80;;
37097;SDS011;63608;49.572;12.348;2024-03-23T07:01:56;0.73;;;0.73;;
37097;SDS011;63608;49.572;12.348;2024-03-23T07:03:57;1.07;;;1.00;;
37097;SDS011;63608;49.572;12.348;2024-03-23T07:05:59;1.00;;;1.00;;
37097;SDS011;63608;49.572;12.348;2024-03-23T07:08:00;0.90;;;0.90;;
37097;SDS011;63608;49.572;12.348;2024-03-23T07:10:02;1.00;;;1.00;;
37097;SDS011;63608;49.572;12.348;2024-03-23T07:12:03;1.17;;;1.10;;
37097;SDS011;63608;49.572;12.348;2024-03-23T07:14:06;1.00;;;1.00;;
37097;SDS011;63608;49.572;12.348;2024-03-23T07:16:09;1.20;;;1.20;;
37097;SDS011;63608;49.572;12.348;2024-03-23T07:18:11;1.10;;;1.10;;
37097;SDS011;63608;49.572;12.348;2024-03-23T07:20:12;1.10;;;1.00;;
37097;SDS011;63608;49.572;12.348;2024-03-23T07:22:14;1.20;;;1.10;;
37097;SDS011;63608;49.572;12.348;2024-03-23T07:24:15;2.07;;;1.00;;
37097;SDS011;63608;49.572;12.348;2024-03-23T07:26:17;1.07;;;1.00;;
37097;SDS011;63608;49.572;12.348;2024-03-23T07:28:19;1.00;;;1.00;;
37097;SDS011;63608;49.572;12.348;2024-03-23T07:30:22;1.00;;;1.00;;
37097;SDS011;63608;49.572;12.348;2024-03-23T07:32:24;0.90;;;0.90;;
37097;SDS011;63608;49.572;12.348;2024-03-23T07:34:26;1.00;;;1.00;;
37097;SDS011;63608;49.572;12.348;2024-03-23T07:36:27;1.13;;;1.13;;
37097;SDS011;63608;49.572;12.348;2024-03-23T07:38:28;1.00;;;1.00;;
37097;SDS011;63608;49.572;12.348;2024-03-23T07:40:31;1.10;;;1.10;;
37097;SDS011;63608;49.572;12.348;2024-03-23T07:42:32;1.10;;;1.10;;
37097;SDS011;63608;49.572;12.348;2024-03-23T07:44:34;1.00;;;1.00;;
37097;SDS011;63608;49.572;12.348;2024-03-23T07:46:35;1.10;;;1.10;;
37097;SDS011;63608;49.572;12.348;2024-03-23T07:48:38;1.10;;;1.00;;
37097;SDS011;63608;49.572;12.348;2024-03-23T07:50:40;1.77;;;1.20;;
37097;SDS011;63608;49.572;12.348;2024-03-23T07:52:42;1.00;;;1.00;;
37097;SDS011;63608;49.572;12.348;2024-03-23T07:54:43;0.93;;;0.93;;
37097;SDS011;63608;49.572;12.348;2024-03-23T07:56:45;1.00;;;1.00;;
37097;SDS011;63608;49.572;12.348;2024-03-23T07:58:46;1.10;;;1.10;;
37097;SDS011;63608;49.572;12.348;2024-03-23T08:00:48;1.10;;;1.00;;
37097;SDS011;63608;49.572;12.348;2024-03-23T08:02:50;0.70;;;0.70;;
37097;SDS011;63608;49.572;12.348;2024-03-23T08:04:54;0.77;;;0.77;;
37097;SDS011;63608;49.572;12.348;2024-03-23T08:06:55;1.00;;;1.00;;
37097;SDS011;63608;49.572;12.348;2024-03-23T08:08:57;0.90;;;0.90;;
37097;SDS011;63608;49.572;12.348;2024-03-23T08:11:00;0.70;;;0.70;;
37097;SDS011;63608;49.572;12.348;2024-03-23T08:13:02;0.80;;;0.80;;
37097;SDS011;63608;49.572;12.348;2024-03-23T08:15:03;1.30;;;0.90;;
37097;SDS011;63608;49.572;12.348;2024-03-23T08:17:05;1.23;;;0.90;;
37097;SDS011;63608;49.572;12.348;2024-03-23T08:19:06;0.83;;;0.83;;
37097;SDS011;63608;49.572;12.348;2024-03-23T08:21:10;1.00;;;1.00;;
37097;SDS011;63608;49.572;12.348;2024-03-23T08:23:11;0.80;;;0.80;;
37097;SDS011;63608;49.572;12.348;2024-03-23T08:25:13;0.70;;;0.70;;
37097;SDS011;63608;49.572;12.348;2024-03-23T08:27:14;0.80;;;0.80;;
37097;SDS011;63608;49.572;12.348;2024-03-23T08:29:16;1.23;;;1.13;;
37097;SDS011;63608;49.572;12.348;2024-03-23T08:31:17;0.90;;;0.90;;
37097;SDS011;63608;49.572;12.348;2024-03-23T08:33:19;1.07;;;1.00;;
37097;SDS011;63608;49.572;12.348;2024-03-23T08:35:20;1.10;;;1.10;;
37097;SDS011;63608;49.572;12.348;2024-03-23T08:37:23;0.80;;;0.80;;
37097;SDS011;63608;49.572;12.348;2024-03-23T08:39:24;1.00;;;1.00;;
37097;SDS011;63608;49.572;12.348;2024-03-23T08:41:26;0.90;;;0.90;;
37097;SDS011;63608;49.572;12.348;2024-03-23T08:43:28;0.87;;;0.87;;
37097;SDS011;63608;49.572;12.348;2024-03-23T08:45:30;0.87;;;0.87;;
37097;SDS011;63608;49.572;12.348;2024-03-23T08:47:33;0.90;;;0.90;;
37097;SDS011;63608;49.572;12.348;2024-03-23T08:49:36;0.80;;;0.80;;
37097;SDS011;63608;49.572;12.348;2024-03-23T08:51:37;3.87;;;0.90;;
37097;SDS011;63608;49.572;12.348;2024-03-23T08:53:40;2.00;;;0.90;;
37097;SDS011;63608;49.572;12.348;2024-03-23T08:55:41;0.77;;;0.77;;
37097;SDS011;63608;49.572;12.348;2024-03-23T08:57:43;1.53;;;0.90;;
37097;SDS011;63608;49.572;12.348;2024-03-23T08:59:44;1.90;;;1.40;;
37097;SDS011;63608;49.572;12.348;2024-03-23T09:01:46;0.80;;;0.80;;
37097;SDS011;63608;49.572;12.348;2024-03-23T09:03:47;1.47;;;1.40;;
37097;SDS011;63608;49.572;12.348;2024-03-23T09:05:49;1.07;;;1.00;;
37097;SDS011;63608;49.572;12.348;2024-03-23T09:07:50;0.90;;;0.90;;
37097;SDS011;63608;49.572;12.348;2024-03-23T09:09:54;1.50;;;1.40;;
37097;SDS011;63608;49.572;12.348;2024-03-23T09:11:55;0.80;;;0.80;;
37097;SDS011;63608;49.572;12.348;2024-03-23T09:13:57;0.80;;;0.80;;
37097;SDS011;63608;49.572;12.348;2024-03-23T09:15:58;1.30;;;1.30;;
37097;SDS011;63608;49.572;12.348;2024-03-23T09:18:00;0.60;;;0.60;;
37097;SDS011;63608;49.572;12.348;2024-03-23T09:20:01;0.90;;;0.90;;
37097;SDS011;63608;49.572;12.348;2024-03-23T09:22:04;0.70;;;0.70;;
37097;SDS011;63608;49.572;12.348;2024-03-23T09:24:05;0.70;;;0.70;;
37097;SDS011;63608;49.572;12.348;2024-03-23T09:26:09;0.60;;;0.60;;
37097;SDS011;63608;49.572;12.348;2024-03-23T09:28:10;0.60;;;0.60;;
37097;SDS011;63608;49.572;12.348;2024-03-23T09:30:11;0.60;;;0.60;;
37097;SDS011;63608;49.572;12.348;2024-03-23T09:32:14;0.43;;;0.43;;
37097;SDS011;63608;49.572;12.348;2024-03-23T09:34:15;0.50;;;0.50;;
37097;SDS011;63608;49.572;12.348;2024-03-23T09:36:17;0.57;;;0.57;;
37097;SDS011;63608;49.572;12.348;2024-03-23T09:38:18;0.60;;;0.60;;
37097;SDS011;63608;49.572;12.348;2024-03-23T09:40:20;0.50;;;0.50;;
37097;SDS011;63608;49.572;12.348;2024-03-23T09:42:25;0.40;;;0.40;;
37097;SDS011;63608;49.572;12.348;2024-03-23T09:44:27;0.50;;;0.50;;
37097;SDS011;63608;49.572;12.348;2024-03-23T09:46:29;0.50;;;0.50;;
37097;SDS011;63608;49.572;12.348;2024-03-23T09:48:34;0.40;;;0.40;;
37097;SDS011;63608;49.572;12.348;2024-03-23T09:50:36;0.40;;;0.40;;
37097;SDS011;63608;49.572;12.348;2024-03-23T09:52:38;0.30;;;0.30;;
37097;SDS011;63608;49.572;12.348;2024-03-23T09:54:39;0.40;;;0.40;;
37097;SDS011;63608;49.572;12.348;2024-03-23T09:56:41;0.40;;;0.40;;
37097;SDS011;63608;49.572;12.348;2024-03-23T09:58:45;0.50;;;0.50;;
37097;SDS011;63608;49.572;12.348;2024-03-23T10:00:46;0.40;;;0.40;;
37097;SDS011;63608;49.572;12.348;2024-03-23T10:02:48;0.50;;;0.50;;
37097;SDS011;63608;49.572;12.348;2024-03-23T10:04:49;0.40;;;0.40;;
37097;SDS011;63608;49.572;12.348;2024-03-23T10:06:51;0.50;;;0.50;;
37097;SDS011;63608;49.572;12.348;2024-03-23T10:08:52;0.60;;;0.60;;
37097;SDS011;63608;49.572;12.348;2024-03-23T10:10:55;0.50;;;0.50;;
37097;SDS011;63608;49.572;12.348;2024-03-23T10:12:56;1.40;;;0.50;;
37097;SDS011;63608;49.572;12.348;2024-03-23T10:14:59;0.40;;;0.40;;
37097;SDS011;63608;49.572;12.348;2024-03-23T10:17:11;0.50;;;0.50;;
37097;SDS011;63608;49.572;12.348;2024-03-23T10:19:15;0.40;;;0.40;;
37097;SDS011;63608;49.572;12.348;2024-03-23T10:21:31;0.50;;;0.50;;
37097;SDS011;63608;49.572;12.348;2024-03-23T10:23:32;0.40;;;0.40;;
37097;SDS011;63608;49.572;12.348;2024-03-23T10:25:34;0.50;;;0.40;;
37097;SDS011;63608;49.572;12.348;2024-03-23T10:27:36;0.40;;;0.40;;
37097;SDS011;63608;49.572;12.348;2024-03-23T10:29:37;0.40;;;0.40;;
37097;SDS011;63608;49.572;12.348;2024-03-23T10:31:40;0.73;;;0.37;;
37097;SDS011;63608;49.572;12.348;2024-03-23T10:33:44;0.30;;;0.30;;
37097;SDS011;63608;49.572;12.348;2024-03-23T10:35:46;1.20;;;0.40;;
37097;SDS011;63608;49.572;12.348;2024-03-23T10:37:48;0.40;;;0.40;;
37097;SDS011;63608;49.572;12.348;2024-03-23T10:39:50;0.40;;;0.40;;
37097;SDS011;63608;49.572;12.348;2024-03-23T10:41:51;0.40;;;0.40;;
37097;SDS011;63608;49.572;12.348;2024-03-23T10:43:55;0.50;;;0.50;;
37097;SDS011;63608;49.572;12.348;2024-03-23T10:45:56;0.40;;;0.40;;
37097;SDS011;63608;49.572;12.348;2024-03-23T10:48:00;0.40;;;0.40;;
37097;SDS011;63608;49.572;12.348;2024-03-23T10:50:03;2.27;;;0.50;;
37097;SDS011;63608;49.572;12.348;2024-03-23T10:52:06;0.43;;;0.43;;
37097;SDS011;63608;49.572;12.348;2024-03-23T10:54:07;0.50;;;0.50;;
37097;SDS011;63608;49.572;12.348;2024-03-23T10:56:13;1.43;;;0.50;;
37097;SDS011;63608;49.572;12.348;2024-03-23T10:58:16;0.40;;;0.40;;
37097;SDS011;63608;49.572;12.348;2024-03-23T11:00:18;0.40;;;0.40;;
37097;SDS011;63608;49.572;12.348;2024-03-23T11:02:21;0.40;;;0.40;;
37097;SDS011;63608;49.572;12.348;2024-03-23T11:04:34;0.40;;;0.40;;
37097;SDS011;63608;49.572;12.348;2024-03-23T11:06:39;0.40;;;0.40;;
37097;SDS011;63608;49.572;12.348;2024-03-23T11:08:40;0.30;;;0.30;;
37097;SDS011;63608;49.572;12.348;2024-03-23T11:10:43;0.40;;;0.40;;
37097;SDS011;63608;49.572;12.348;2024-03-23T11:12:44;0.30;;;0.30;;
37097;SDS011;63608;49.572;12.348;2024-03-23T11:14:46;0.40;;;0.40;;
37097;SDS011;63608;49.572;12.348;2024-03-23T11:16:51;0.30;;;0.30;;
37097;SDS011;63608;49.572;12.348;2024-03-23T11:21:53;0.30;;;0.30;;
37097;SDS011;63608;49.572;12.348;2024-03-23T11:23:59;1.00;;;0.40;;
37097;SDS011;63608;49.572;12.348;2024-03-23T11:26:13;0.43;;;0.43;;
37097;SDS011;63608;49.572;12.348;2024-03-23T11:28:15;0.40;;;0.40;;
37097;SDS011;63608;49.572;12.348;2024-03-23T11:30:17;0.33;;;0.33;;
37097;SDS011;63608;49.572;12.348;2024-03-23T11:32:19;0.40;;;0.40;;
37097;SDS011;63608;49.572;12.348;2024-03-23T11:34:20;0.60;;;0.60;;
37097;SDS011;63608;49.572;12.348;2024-03-23T11:36:23;0.40;;;0.40;;
37097;SDS011;63608;49.572;12.348;2024-03-23T11:38:25;5.83;;;4.67;;
37097;SDS011;63608;49.572;12.348;2024-03-23T11:40:26;0.97;;;0.97;;
37097;SDS011;63608;49.572;12.348;2024-03-23T11:42:27;0.50;;;0.50;;
37097;SDS011;63608;49.572;12.348;2024-03-23T11:44:29;1.03;;;0.40;;
37097;SDS011;63608;49.572;12.348;2024-03-23T11:46:30;0.60;;;0.60;;
37097;SDS011;63608;49.572;12.348;2024-03-23T11:48:32;0.60;;;0.60;;
37097;SDS011;63608;49.572;12.348;2024-03-23T11:50:34;0.50;;;0.50;;
37097;SDS011;63608;49.572;12.348;2024-03-23T11:52:39;1.10;;;1.10;;
37097;SDS011;63608;49.572;12.348;2024-03-23T11:54:40;0.50;;;0.50;;
37097;SDS011;63608;49.572;12.348;2024-03-23T11:56:53;0.70;;;0.70;;
37097;SDS011;63608;49.572;12.348;2024-03-23T11:58:55;0.60;;;0.60;;
37097;SDS011;63608;49.572;12.348;2024-03-23T12:00:57;0.50;;;0.50;;
37097;SDS011;63608;49.572;12.348;2024-03-23T12:03:00;0.50;;;0.50;;
37097;SDS011;63608;49.572;12.348;2024-03-23T12:05:13;0.50;;;0.50;;
37097;SDS011;63608;49.572;12.348;2024-03-23T12:07:15;0.50;;;0.50;;
37097;SDS011;63608;49.572;12.348;2024-03-23T12:09:20;0.67;;;0.50;;
37097;SDS011;63608;49.572;12.348;2024-03-23T12:11:21;1.00;;;0.50;;
37097;SDS011;63608;49.572;12.348;2024-03-23T12:13:24;0.60;;;0.60;;
37097;SDS011;63608;49.572;12.348;2024-03-23T12:15:25;0.70;;;0.70;;
37097;SDS011;63608;49.572;12.348;2024-03-23T12:17:29;0.83;;;0.70;;
37097;SDS011;63608;49.572;12.348;2024-03-23T12:19:30;0.80;;;0.80;;
37097;SDS011;63608;49.572;12.348;2024-03-23T12:21:32;0.93;;;0.93;;
37097;SDS011;63608;49.572;12.348;2024-03-23T12:23:33;0.93;;;0.93;;
37097;SDS011;63608;49.572;12.348;2024-03-23T12:25:37;0.80;;;0.80;;
37097;SDS011;63608;49.572;12.348;2024-03-23T12:27:38;0.70;;;0.70;;
37097;SDS011;63608;49.572;12.348;2024-03-23T12:29:39;1.50;;;0.90;;
37097;SDS011;63608;49.572;12.348;2024-03-23T12:31:41;0.70;;;0.70;;
37097;SDS011;63608;49.572;12.348;2024-03-23T12:33:42;0.93;;;0.70;;
37097;SDS011;63608;49.572;12.348;2024-03-23T12:35:44;1.03;;;0.70;;
37097;SDS011;63608;49.572;12.348;2024-03-23T12:37:45;2.20;;;0.73;;
37097;SDS011;63608;49.572;12.348;2024-03-23T12:39:48;0.90;;;0.80;;
37097;SDS011;63608;49.572;12.348;2024-03-23T12:41:50;0.77;;;0.77;;
37097;SDS011;63608;49.572;12.348;2024-03-23T12:43:53;0.97;;;0.70;;
37097;SDS011;63608;49.572;12.348;2024-03-23T12:45:54;0.70;;;0.70;;
37097;SDS011;63608;49.572;12.348;2024-03-23T12:47:56;1.43;;;1.00;;
37097;SDS011;63608;49.572;12.348;2024-03-23T12:49:57;0.87;;;0.60;;
37097;SDS011;63608;49.572;12.348;2024-03-23T12:51:59;0.73;;;0.73;;
37097;SDS011;63608;49.572;12.348;2024-03-23T12:54:01;0.70;;;0.70;;
37097;SDS011;63608;49.572;12.348;2024-03-23T12:56:04;0.90;;;0.90;;
37097;SDS011;63608;49.572;12.348;2024-03-23T12:58:06;1.30;;;0.80;;
37097;SDS011;63608;49.572;12.348;2024-03-23T13:00:09;0.90;;;0.90;;